Time;durP1;ratioP1;P1;durP2;ratioP2;P2;SDS_P1;SDS_P2;PMS_P1;PMS_P2;Temp;Humidity;BMP_temperature;BMP_pressure;BME280_temperature;BME280_humidity;BME280_pressure;Samples;Min_cycle;Max_cycle;Signal;HPM_P1;HPM_P2
2023/05/24 00:01:55;;;;;;;8.88;1.20;;;8.40;99.90;;;;;;5018965;28;20492;-69
2023/05/24 00:04:23;;;;;;;12.95;1.25;;;8.40;99.90;;;;;;4994041;28;20029;-70
2023/05/24 00:06:50;;;;;;;9.02;1.17;;;8.30;99.90;;;;;;5012601;28;20037;-69
2023/05/24 00:09:17;;;;;;;9.25;1.45;;;8.30;99.90;;;;;;5009696;28;20041;-69
2023/05/24 00:11:43;;;;;;;9.85;1.17;;;8.30;99.90;;;;;;5008982;28;20363;-69
2023/05/24 00:14:09;;;;;;;11.02;1.45;;;8.20;99.90;;;;;;5011498;28;20550;-70
2023/05/24 00:16:36;;;;;;;11.13;0.88;;;8.30;99.90;;;;;;5013323;28;20048;-69
2023/05/24 00:19:02;;;;;;;6.53;1.02;;;8.20;99.90;;;;;;5021141;28;20037;-69
2023/05/24 00:21:29;;;;;;;10.40;1.60;;;8.20;99.90;;;;;;5018435;28;20025;-71
2023/05/24 00:23:55;;;;;;;8.05;1.15;;;8.20;99.90;;;;;;5019259;28;20485;-69
2023/05/24 00:26:22;;;;;;;12.63;1.88;;;8.10;99.90;;;;;;5011311;28;20036;-69
2023/05/24 00:28:54;;;;;;;12.35;1.25;;;8.20;99.90;;;;;;5010281;28;20491;-69
2023/05/24 00:31:21;;;;;;;6.43;1.13;;;8.10;99.90;;;;;;4992010;28;21469;-69
2023/05/24 00:33:47;;;;;;;13.60;1.13;;;8.10;99.90;;;;;;5009675;28;20033;-69
2023/05/24 00:36:13;;;;;;;20.40;2.08;;;8.00;99.90;;;;;;4995621;28;20956;-68
2023/05/24 00:38:40;;;;;;;13.13;1.80;;;8.00;99.90;;;;;;5016480;28;20236;-68
2023/05/24 00:41:06;;;;;;;13.65;1.95;;;8.00;99.90;;;;;;5029218;28;20048;-68
2023/05/24 00:43:32;;;;;;;7.75;1.23;;;8.00;99.90;;;;;;5019880;28;20041;-68
2023/05/24 00:46:25;;;;;;;11.63;1.77;;;8.00;99.90;;;;;;4996824;28;20382;-69
2023/05/24 00:48:54;;;;;;;15.68;1.40;;;8.00;99.90;;;;;;4992230;28;20033;-69
2023/05/24 00:51:20;;;;;;;12.73;1.50;;;8.00;99.90;;;;;;5004020;28;20055;-69
2023/05/24 00:53:47;;;;;;;13.65;1.88;;;8.00;99.90;;;;;;5011152;28;20056;-68
2023/05/24 00:56:15;;;;;;;9.35;1.33;;;7.90;99.90;;;;;;5011590;28;20048;-70
2023/05/24 00:58:43;;;;;;;9.55;1.35;;;7.90;99.90;;;;;;5014841;28;20069;-70
2023/05/24 01:01:10;;;;;;;11.13;1.35;;;7.90;99.90;;;;;;4997792;28;23602;-69
2023/05/24 01:03:36;;;;;;;11.65;2.28;;;7.90;99.90;;;;;;5021120;28;20048;-69
2023/05/24 01:06:06;;;;;;;11.10;1.50;;;7.90;99.90;;;;;;5014923;28;20036;-70
2023/05/24 01:08:52;;;;;;;8.30;1.90;;;7.90;99.90;;;;;;5007704;28;20405;-69
2023/05/24 01:11:34;;;;;;;11.52;1.42;;;7.90;99.90;;;;;;5005535;28;20048;-69
2023/05/24 01:14:23;;;;;;;12.30;1.60;;;7.80;99.90;;;;;;5009753;28;20033;-68
2023/05/24 01:17:17;;;;;;;9.70;1.10;;;7.80;99.90;;;;;;5003378;28;20064;-68
2023/05/24 01:20:07;;;;;;;10.65;1.25;;;7.80;99.90;;;;;;5006960;28;20036;-70
2023/05/24 01:22:52;;;;;;;12.18;1.67;;;7.80;99.90;;;;;;5020571;28;20140;-69
2023/05/24 01:25:49;;;;;;;7.88;1.67;;;7.70;99.90;;;;;;5021081;28;20037;-69
2023/05/24 01:28:17;;;;;;;10.85;1.42;;;7.70;99.90;;;;;;5012155;28;20037;-69
2023/05/24 01:30:44;;;;;;;11.48;1.77;;;7.70;99.90;;;;;;5006513;28;20032;-69
2023/05/24 01:33:11;;;;;;;13.68;1.50;;;7.70;99.90;;;;;;4979313;28;20688;-69
2023/05/24 01:35:41;;;;;;;14.20;1.80;;;7.70;99.90;;;;;;4991697;28;20049;-69
2023/05/24 01:38:09;;;;;;;12.00;2.28;;;7.70;99.90;;;;;;5009396;28;20041;-68
2023/05/24 01:40:37;;;;;;;15.93;1.95;;;7.70;99.90;;;;;;5023907;28;20099;-69
2023/05/24 01:43:15;;;;;;;12.88;1.52;;;7.70;99.90;;;;;;5019906;28;20043;-69
2023/05/24 01:45:51;;;;;;;11.00;1.40;;;7.70;99.90;;;;;;5019003;28;20864;-69
2023/05/24 01:48:37;;;;;;;11.25;1.05;;;7.60;99.90;;;;;;5008478;28;20017;-70
2023/05/24 01:51:07;;;;;;;11.05;1.48;;;7.60;99.90;;;;;;4983597;28;21729;-69
2023/05/24 01:53:38;;;;;;;10.10;1.10;;;7.50;99.90;;;;;;4996288;28;20036;-68
2023/05/24 01:56:06;;;;;;;14.75;1.52;;;7.50;99.90;;;;;;5010363;28;20037;-68
2023/05/24 01:58:33;;;;;;;10.43;1.27;;;7.50;99.90;;;;;;5011338;28;20388;-69
2023/05/24 02:01:01;;;;;;;8.65;1.55;;;7.40;99.90;;;;;;5011430;28;20041;-69
2023/05/24 02:03:27;;;;;;;11.27;1.70;;;7.40;99.90;;;;;;5020604;28;20710;-69
2023/05/24 02:05:55;;;;;;;7.00;1.02;;;7.40;99.90;;;;;;5017811;28;20052;-69
2023/05/24 02:08:21;;;;;;;7.20;1.20;;;7.40;99.90;;;;;;5010274;28;20351;-69
2023/05/24 02:10:48;;;;;;;4.90;0.80;;;7.40;99.90;;;;;;4970507;28;20035;-70
2023/05/24 02:13:16;;;;;;;8.57;0.90;;;7.40;99.90;;;;;;5007383;28;20044;-68
2023/05/24 02:15:43;;;;;;;8.70;1.20;;;7.40;99.90;;;;;;5009646;28;20052;-69
2023/05/24 02:18:13;;;;;;;9.88;1.67;;;7.40;99.90;;;;;;4992886;28;20033;-70
2023/05/24 02:20:39;;;;;;;6.18;1.08;;;7.50;99.90;;;;;;5007939;28;20492;-68
2023/05/24 02:23:05;;;;;;;10.05;1.55;;;7.50;99.90;;;;;;5021270;28;20036;-69
2023/05/24 02:25:32;;;;;;;10.70;1.38;;;7.40;99.90;;;;;;5004039;28;20048;-68
2023/05/24 02:27:58;;;;;;;9.65;1.30;;;7.40;99.90;;;;;;5013064;28;20037;-69
2023/05/24 02:30:25;;;;;;;11.32;1.15;;;7.50;99.90;;;;;;4988369;28;20047;-70
2023/05/24 02:32:51;;;;;;;8.02;1.42;;;7.50;99.90;;;;;;5007912;28;20044;-68
2023/05/24 02:35:18;;;;;;;11.95;1.80;;;7.40;99.90;;;;;;5009465;28;20395;-68
2023/05/24 02:37:45;;;;;;;15.48;1.92;;;7.50;99.90;;;;;;5025809;28;20044;-69
2023/05/24 02:40:11;;;;;;;8.63;1.25;;;7.50;99.90;;;;;;5007171;28;20463;-69
2023/05/24 02:42:38;;;;;;;12.40;2.75;;;7.50;99.90;;;;;;5020465;28;20033;-68
2023/05/24 02:45:05;;;;;;;8.32;1.50;;;7.40;99.90;;;;;;5022090;28;20020;-69
2023/05/24 02:47:31;;;;;;;11.70;1.77;;;7.50;99.90;;;;;;5013298;28;20036;-70
2023/05/24 02:49:57;;;;;;;11.52;1.33;;;7.40;99.90;;;;;;5003440;28;20059;-70
2023/05/24 02:52:23;;;;;;;7.20;0.90;;;7.40;99.90;;;;;;5007791;28;20423;-70
2023/05/24 02:54:50;;;;;;;7.25;1.88;;;7.30;99.90;;;;;;5008371;28;21411;-68
2023/05/24 02:57:18;;;;;;;9.50;1.63;;;7.30;99.90;;;;;;5004583;28;20033;-69
2023/05/24 02:59:45;;;;;;;12.15;1.30;;;7.30;99.90;;;;;;5017608;28;20041;-69
2023/05/24 03:02:14;;;;;;;5.70;0.90;;;7.30;99.90;;;;;;5009397;28;20040;-69
2023/05/24 03:04:41;;;;;;;5.50;0.90;;;7.30;99.90;;;;;;5002347;28;20606;-68
2023/05/24 03:07:10;;;;;;;7.03;1.10;;;7.20;99.90;;;;;;5006881;28;20047;-70
2023/05/24 03:09:36;;;;;;;11.02;1.45;;;7.20;99.90;;;;;;5008753;28;21287;-69
2023/05/24 03:12:03;;;;;;;7.72;1.35;;;7.20;99.90;;;;;;4992696;28;20032;-70
2023/05/24 03:14:32;;;;;;;7.72;1.58;;;7.20;99.90;;;;;;4991580;28;20036;-69
2023/05/24 03:16:58;;;;;;;10.65;1.48;;;7.20;99.90;;;;;;4991525;28;20068;-70
2023/05/24 03:19:25;;;;;;;8.40;1.15;;;7.20;99.90;;;;;;5006625;28;20640;-69
2023/05/24 03:21:51;;;;;;;8.38;1.13;;;7.30;99.90;;;;;;5006480;28;20389;-70
2023/05/24 03:24:18;;;;;;;7.85;0.93;;;7.30;99.90;;;;;;5013030;28;20507;-69
2023/05/24 03:26:45;;;;;;;4.68;1.00;;;7.20;99.90;;;;;;5018293;28;20041;-70
2023/05/24 03:29:11;;;;;;;5.20;1.10;;;7.20;99.90;;;;;;5020420;28;20043;-69
2023/05/24 03:31:40;;;;;;;7.68;1.33;;;7.20;99.90;;;;;;4995321;28;20044;-70
2023/05/24 03:34:07;;;;;;;8.48;1.23;;;7.20;99.90;;;;;;5009480;28;20041;-70
2023/05/24 03:36:35;;;;;;;12.98;1.50;;;7.20;99.90;;;;;;4994180;28;20037;-70
2023/05/24 03:39:03;;;;;;;6.40;1.13;;;7.20;99.90;;;;;;5012065;28;20072;-69
2023/05/24 03:41:32;;;;;;;5.68;1.15;;;7.20;99.90;;;;;;5008565;28;20032;-69
2023/05/24 03:44:00;;;;;;;8.80;1.55;;;7.20;99.90;;;;;;5011323;28;20040;-69
2023/05/24 03:46:28;;;;;;;7.93;1.40;;;7.20;99.90;;;;;;5020551;28;20033;-70
2023/05/24 03:48:55;;;;;;;6.28;1.40;;;7.20;99.90;;;;;;5007405;28;20045;-70
2023/05/24 03:51:28;;;;;;;9.43;1.60;;;7.20;99.90;;;;;;5013949;28;20056;-69
2023/05/24 03:53:56;;;;;;;6.85;1.15;;;7.20;99.90;;;;;;5011765;28;20048;-70
2023/05/24 03:56:23;;;;;;;10.23;1.65;;;7.20;99.90;;;;;;5013550;28;20471;-70
2023/05/24 03:58:51;;;;;;;9.43;1.58;;;7.30;99.90;;;;;;5013398;28;20040;-70
2023/05/24 04:01:18;;;;;;;8.15;1.75;;;7.30;99.90;;;;;;4990564;28;20052;-70
2023/05/24 04:03:45;;;;;;;12.10;1.77;;;7.30;99.90;;;;;;5008307;28;20041;-69
2023/05/24 04:06:12;;;;;;;10.18;2.00;;;7.30;99.90;;;;;;5014462;28;20064;-70
2023/05/24 04:08:39;;;;;;;9.25;1.65;;;7.40;99.90;;;;;;4990262;28;20037;-69
2023/05/24 04:11:05;;;;;;;6.47;1.50;;;7.50;99.90;;;;;;5018016;28;20029;-69
2023/05/24 04:13:31;;;;;;;10.18;1.80;;;7.50;99.90;;;;;;5014403;28;21466;-70
2023/05/24 04:15:57;;;;;;;12.35;1.77;;;7.60;99.90;;;;;;5011895;28;20036;-69
2023/05/24 04:18:24;;;;;;;9.18;1.77;;;7.60;99.90;;;;;;5025040;28;20034;-69
2023/05/24 04:20:51;;;;;;;12.73;2.42;;;7.70;99.90;;;;;;5007628;28;20036;-70
2023/05/24 04:23:19;;;;;;;12.55;2.65;;;7.70;99.90;;;;;;4995170;28;20056;-69
2023/05/24 04:25:45;;;;;;;12.52;3.08;;;7.70;99.90;;;;;;5011718;28;20036;-70
2023/05/24 04:28:14;;;;;;;13.20;2.65;;;7.80;99.90;;;;;;5011884;28;20041;-70
2023/05/24 04:30:40;;;;;;;12.45;3.13;;;7.80;99.90;;;;;;5000559;28;20037;-69
2023/05/24 04:33:07;;;;;;;11.27;2.80;;;7.90;99.90;;;;;;5022539;28;20037;-70
2023/05/24 04:35:34;;;;;;;13.30;2.58;;;8.00;99.90;;;;;;4999132;28;20132;-70
2023/05/24 04:38:01;;;;;;;8.07;1.80;;;8.10;99.90;;;;;;4997230;28;20045;-69
2023/05/24 04:40:27;;;;;;;10.50;2.15;;;8.20;99.90;;;;;;5006728;28;20033;-69
2023/05/24 04:42:54;;;;;;;13.68;2.78;;;8.30;99.90;;;;;;5011957;28;20826;-70
2023/05/24 04:45:20;;;;;;;14.77;3.13;;;8.50;99.90;;;;;;5011605;28;20048;-69
2023/05/24 04:47:46;;;;;;;12.82;2.72;;;8.70;99.90;;;;;;5012241;28;20039;-72
2023/05/24 04:50:13;;;;;;;16.98;4.22;;;8.80;99.90;;;;;;5015503;28;20029;-73
2023/05/24 04:52:39;;;;;;;17.75;7.03;;;8.80;99.90;;;;;;5020374;28;20063;-72
2023/05/24 04:55:06;;;;;;;12.45;5.30;;;8.90;99.90;;;;;;5017993;28;20395;-72
2023/05/24 04:57:32;;;;;;;19.13;5.82;;;8.90;99.90;;;;;;4994417;28;20037;-69
2023/05/24 04:59:58;;;;;;;15.15;4.70;;;9.00;99.90;;;;;;5004598;28;20056;-69
2023/05/24 05:02:25;;;;;;;10.00;3.40;;;9.20;99.90;;;;;;5011327;28;20056;-69
2023/05/24 05:04:52;;;;;;;15.85;3.60;;;9.30;99.90;;;;;;5009810;28;20040;-69
2023/05/24 05:07:18;;;;;;;13.43;2.92;;;9.40;99.90;;;;;;4993541;28;20033;-69
2023/05/24 05:09:44;;;;;;;15.15;3.03;;;9.40;99.90;;;;;;5010490;28;20040;-70
2023/05/24 05:12:11;;;;;;;12.65;2.75;;;9.50;99.90;;;;;;5030018;28;20029;-70
2023/05/24 05:14:38;;;;;;;13.23;3.75;;;9.50;99.90;;;;;;5018942;28;20052;-70
2023/05/24 05:17:04;;;;;;;14.90;3.22;;;9.60;99.90;;;;;;5009016;28;20053;-70
2023/05/24 05:19:30;;;;;;;15.52;4.20;;;9.70;99.90;;;;;;4987731;28;20488;-68
2023/05/24 05:21:57;;;;;;;16.35;4.07;;;9.80;99.90;;;;;;5007171;28;20068;-69
2023/05/24 05:24:23;;;;;;;9.98;2.63;;;9.80;99.90;;;;;;5007275;28;20036;-68
2023/05/24 05:26:57;;;;;;;9.02;2.30;;;9.90;99.90;;;;;;5022572;28;20037;-70
2023/05/24 05:29:26;;;;;;;13.73;2.38;;;10.00;99.90;;;;;;4987886;28;20416;-70
2023/05/24 05:31:55;;;;;;;13.10;2.85;;;10.00;99.90;;;;;;4988059;28;20044;-70
2023/05/24 05:34:42;;;;;;;20.50;4.15;;;10.00;99.90;;;;;;5002800;28;20029;-76
2023/05/24 05:37:16;;;;;;;17.33;3.25;;;10.10;99.90;;;;;;5005557;28;20041;-72
2023/05/24 05:39:48;;;;;;;12.13;2.72;;;10.20;99.90;;;;;;4986717;28;20037;-72
2023/05/24 05:42:18;;;;;;;15.05;3.40;;;10.30;99.90;;;;;;4974629;28;20053;-71
2023/05/24 05:44:45;;;;;;;18.25;4.00;;;10.30;99.90;;;;;;4975614;28;20404;-74
2023/05/24 05:47:14;;;;;;;14.50;3.70;;;10.20;99.90;;;;;;5009392;28;20032;-72
2023/05/24 05:49:48;;;;;;;18.67;3.30;;;10.20;99.90;;;;;;5005197;28;20029;-72
2023/05/24 05:52:14;;;;;;;11.32;2.97;;;10.30;99.90;;;;;;5018627;28;20052;-71
2023/05/24 05:54:41;;;;;;;8.38;2.45;;;10.40;99.90;;;;;;5019305;28;20041;-70
2023/05/24 05:57:09;;;;;;;6.72;1.80;;;10.60;99.90;;;;;;5015054;28;20037;-70
2023/05/24 05:59:36;;;;;;;12.77;2.38;;;10.70;99.90;;;;;;5005578;28;20336;-70
2023/05/24 06:02:04;;;;;;;13.80;3.70;;;10.80;99.90;;;;;;5012317;28;20037;-70
2023/05/24 06:04:30;;;;;;;9.32;2.33;;;10.90;99.90;;;;;;5010166;28;20036;-69
2023/05/24 06:06:57;;;;;;;9.25;2.40;;;10.90;99.90;;;;;;4993585;28;20419;-70
2023/05/24 06:09:23;;;;;;;9.60;2.47;;;10.90;99.90;;;;;;5006687;28;20608;-69
2023/05/24 06:11:49;;;;;;;11.00;2.60;;;11.00;99.90;;;;;;5015523;28;20066;-71
2023/05/24 06:14:17;;;;;;;12.35;3.72;;;11.10;99.90;;;;;;5002929;28;20041;-70
2023/05/24 06:16:44;;;;;;;14.07;3.45;;;11.20;99.90;;;;;;5019568;28;20025;-70
2023/05/24 06:19:12;;;;;;;10.98;2.50;;;11.30;99.90;;;;;;5008001;28;20404;-69
2023/05/24 06:21:45;;;;;;;11.65;3.05;;;11.30;99.90;;;;;;5007886;28;20041;-69
2023/05/24 06:24:19;;;;;;;12.48;3.58;;;11.50;99.90;;;;;;5011173;28;20033;-70
2023/05/24 06:26:47;;;;;;;12.57;2.35;;;11.90;99.90;;;;;;5010726;28;20374;-70
2023/05/24 06:29:13;;;;;;;8.35;2.20;;;12.30;99.90;;;;;;5006807;28;20039;-69
2023/05/24 06:31:39;;;;;;;15.45;2.55;;;12.70;99.90;;;;;;5006957;28;20979;-69
2023/05/24 06:34:06;;;;;;;12.45;2.03;;;13.10;99.90;;;;;;5017529;28;20409;-70
2023/05/24 06:36:34;;;;;;;16.95;3.47;;;13.60;99.90;;;;;;5021979;28;20041;-68
2023/05/24 06:39:02;;;;;;;13.98;2.60;;;14.10;99.90;;;;;;5021086;28;20033;-68
2023/05/24 06:41:28;;;;;;;9.18;2.13;;;14.30;99.90;;;;;;5006737;28;20044;-68
2023/05/24 06:43:54;;;;;;;17.98;3.08;;;14.20;99.90;;;;;;5010352;28;20029;-69
2023/05/24 06:46:21;;;;;;;14.13;2.95;;;14.00;99.90;;;;;;5011246;28;20025;-68
2023/05/24 06:48:47;;;;;;;8.88;2.45;;;13.80;99.90;;;;;;5012583;28;20040;-67
2023/05/24 06:51:13;;;;;;;14.30;2.72;;;13.70;99.90;;;;;;5006695;28;20053;-68
2023/05/24 06:53:40;;;;;;;12.52;2.42;;;13.60;99.90;;;;;;5014235;28;20031;-69
2023/05/24 06:56:08;;;;;;;11.15;2.47;;;13.50;99.90;;;;;;5017935;28;20050;-68
2023/05/24 06:58:35;;;;;;;10.98;2.55;;;13.30;99.90;;;;;;5001992;28;20041;-69
2023/05/24 07:01:03;;;;;;;15.48;2.45;;;13.30;99.90;;;;;;5008407;28;20037;-69
2023/05/24 07:03:30;;;;;;;12.52;2.85;;;13.40;99.90;;;;;;5007667;28;20609;-68
2023/05/24 07:05:57;;;;;;;13.18;2.30;;;13.50;99.90;;;;;;5006865;28;20028;-68
2023/05/24 07:08:26;;;;;;;9.98;2.25;;;13.60;99.90;;;;;;5009648;28;20044;-68
2023/05/24 07:10:53;;;;;;;15.88;2.70;;;13.70;99.90;;;;;;5006251;28;20036;-68
2023/05/24 07:13:20;;;;;;;13.48;2.53;;;13.70;99.90;;;;;;5012688;28;20596;-67
2023/05/24 07:15:46;;;;;;;12.27;2.40;;;13.80;99.90;;;;;;5018375;28;20480;-68
2023/05/24 07:18:13;;;;;;;10.65;2.28;;;13.90;99.90;;;;;;5019754;28;20048;-68
2023/05/24 07:20:40;;;;;;;14.95;3.10;;;14.00;99.90;;;;;;5009285;28;20048;-68
2023/05/24 07:23:06;;;;;;;9.10;1.85;;;14.10;99.90;;;;;;5011373;28;20040;-69
2023/05/24 07:25:33;;;;;;;12.65;2.13;;;14.10;99.90;;;;;;4990263;28;20044;-68
2023/05/24 07:27:59;;;;;;;16.60;2.22;;;14.10;99.90;;;;;;5009815;28;20037;-68
2023/05/24 07:30:26;;;;;;;9.48;1.65;;;14.20;99.90;;;;;;5004946;28;20033;-69
2023/05/24 07:32:52;;;;;;;9.73;1.80;;;14.30;99.90;;;;;;5011915;28;20032;-69
2023/05/24 07:35:19;;;;;;;7.40;1.75;;;14.40;99.90;;;;;;5020579;28;20067;-69
2023/05/24 07:37:45;;;;;;;10.68;1.92;;;14.50;99.90;;;;;;5020443;28;20037;-69
2023/05/24 07:40:12;;;;;;;8.52;2.08;;;14.50;99.90;;;;;;4990269;28;20049;-68
2023/05/24 07:42:38;;;;;;;10.73;1.98;;;14.60;99.90;;;;;;5007528;28;21488;-69
2023/05/24 07:45:06;;;;;;;9.05;1.90;;;14.60;99.90;;;;;;5009463;28;20037;-68
2023/05/24 07:47:32;;;;;;;14.48;2.50;;;14.80;99.90;;;;;;5010116;28;23017;-68
2023/05/24 07:49:58;;;;;;;9.50;1.77;;;14.90;99.90;;;;;;5003021;28;20033;-68
2023/05/24 07:52:25;;;;;;;12.50;2.65;;;15.00;99.90;;;;;;5010827;28;20041;-69
2023/05/24 07:54:51;;;;;;;8.30;1.75;;;15.10;99.90;;;;;;5001094;28;20040;-69
2023/05/24 07:57:18;;;;;;;9.27;1.60;;;15.30;99.90;;;;;;5017280;28;20072;-68
2023/05/24 07:59:45;;;;;;;8.45;1.63;;;15.60;99.90;;;;;;5013936;28;20408;-68
2023/05/24 08:02:15;;;;;;;10.65;1.95;;;15.80;99.90;;;;;;5009129;28;20047;-69
2023/05/24 08:04:48;;;;;;;8.27;1.88;;;15.90;99.90;;;;;;5011286;28;20032;-69
2023/05/24 08:07:14;;;;;;;11.98;2.25;;;16.10;99.90;;;;;;5011004;28;20032;-69
2023/05/24 08:09:41;;;;;;;11.55;2.15;;;16.10;99.90;;;;;;5005969;28;20040;-69
2023/05/24 08:12:07;;;;;;;7.80;1.63;;;16.20;99.90;;;;;;5011061;28;20494;-69
2023/05/24 08:14:33;;;;;;;6.60;1.60;;;16.40;99.90;;;;;;5012765;28;20037;-70
2023/05/24 08:17:00;;;;;;;6.93;1.23;;;16.70;99.90;;;;;;5024666;28;20029;-68
2023/05/24 08:19:27;;;;;;;11.57;1.98;;;17.20;99.90;;;;;;5019745;28;20407;-68
2023/05/24 08:22:02;;;;;;;7.35;1.65;;;17.70;99.90;;;;;;5019721;28;20090;-68
2023/05/24 08:24:29;;;;;;;11.32;2.35;;;17.90;99.90;;;;;;5013842;28;20033;-69
2023/05/24 08:26:56;;;;;;;11.43;1.73;;;17.90;99.90;;;;;;5014970;28;20029;-68
2023/05/24 08:29:23;;;;;;;8.15;1.40;;;17.80;99.90;;;;;;5009634;28;20041;-68
2023/05/24 08:31:49;;;;;;;9.77;1.45;;;17.70;99.90;;;;;;5013475;28;20476;-70
2023/05/24 08:34:15;;;;;;;7.35;1.45;;;17.60;99.90;;;;;;5014230;28;20025;-69
2023/05/24 08:36:42;;;;;;;9.32;1.70;;;17.60;99.90;;;;;;5016879;28;20060;-68
2023/05/24 08:39:09;;;;;;;9.65;1.45;;;17.70;99.90;;;;;;5019170;28;20041;-68
2023/05/24 08:41:38;;;;;;;6.38;1.52;;;17.80;99.90;;;;;;5020816;28;20036;-69
2023/05/24 08:44:08;;;;;;;10.10;1.52;;;17.70;99.90;;;;;;5016642;28;20388;-68
2023/05/24 08:46:35;;;;;;;7.78;1.40;;;17.60;99.90;;;;;;5013291;28;20036;-68
2023/05/24 08:49:02;;;;;;;8.13;1.45;;;17.50;99.90;;;;;;5013757;28;20033;-68
2023/05/24 08:51:29;;;;;;;8.98;1.77;;;17.40;99.90;;;;;;5010479;28;20056;-68
2023/05/24 08:53:58;;;;;;;10.13;1.40;;;17.40;99.90;;;;;;5015539;28;20036;-68
2023/05/24 08:56:26;;;;;;;6.55;1.13;;;17.40;99.90;;;;;;5013310;28;20037;-68
2023/05/24 08:58:55;;;;;;;7.63;1.70;;;17.40;99.90;;;;;;5021171;28;20049;-68
2023/05/24 09:01:23;;;;;;;6.00;1.40;;;17.50;99.90;;;;;;5017473;28;20033;-68
2023/05/24 09:03:51;;;;;;;6.47;1.48;;;17.50;99.90;;;;;;5018541;28;20039;-68
2023/05/24 09:06:18;;;;;;;5.30;1.50;;;17.70;99.90;;;;;;5013694;28;20048;-68
2023/05/24 09:08:45;;;;;;;6.70;1.35;;;17.80;99.90;;;;;;5013202;28;20032;-69
2023/05/24 09:11:13;;;;;;;6.90;1.10;;;18.10;99.90;;;;;;5009976;28;20511;-69
2023/05/24 09:13:39;;;;;;;5.25;1.23;;;18.20;99.90;;;;;;5014546;28;20041;-68
2023/05/24 09:16:06;;;;;;;7.60;1.48;;;18.10;99.90;;;;;;5014950;28;20437;-68
2023/05/24 09:18:32;;;;;;;5.13;1.17;;;18.10;99.90;;;;;;5030592;28;20033;-68
2023/05/24 09:20:59;;;;;;;8.98;1.23;;;17.80;99.70;;;;;;4998609;28;20355;-69
2023/05/24 09:23:26;;;;;;;4.85;1.13;;;17.80;99.70;;;;;;5005990;28;20049;-69
2023/05/24 09:25:52;;;;;;;5.10;1.25;;;17.80;99.80;;;;;;5019078;28;20033;-69
2023/05/24 09:28:20;;;;;;;6.60;1.27;;;18.00;99.60;;;;;;5013517;28;20028;-69
2023/05/24 09:31:02;;;;;;;5.45;1.38;;;18.00;98.90;;;;;;5008931;28;20484;-68
2023/05/24 09:33:30;;;;;;;5.95;1.15;;;18.00;98.80;;;;;;5010459;28;20037;-69
2023/05/24 09:35:58;;;;;;;5.40;1.08;;;17.90;98.60;;;;;;5011327;28;20502;-69
2023/05/24 09:38:24;;;;;;;5.43;1.23;;;17.80;98.60;;;;;;5014318;28;20056;-68
2023/05/24 09:41:05;;;;;;;6.78;1.58;;;17.80;98.40;;;;;;5016348;28;20025;-69
2023/05/24 09:43:37;;;;;;;7.85;1.40;;;17.90;98.30;;;;;;5006452;28;20049;-68
2023/05/24 09:46:04;;;;;;;11.00;2.10;;;18.00;98.10;;;;;;5011659;28;22114;-67
2023/05/24 09:48:30;;;;;;;3.75;1.27;;;18.00;97.70;;;;;;5013456;28;20056;-68
2023/05/24 09:51:10;;;;;;;6.72;1.20;;;18.00;97.80;;;;;;5006910;28;20029;-69
2023/05/24 09:53:37;;;;;;;7.20;1.42;;;18.10;97.80;;;;;;5013159;28;20124;-68
2023/05/24 09:56:05;;;;;;;5.57;1.60;;;18.00;97.50;;;;;;4995511;28;20041;-69
2023/05/24 09:58:32;;;;;;;6.57;1.33;;;18.00;97.60;;;;;;5012496;28;20037;-68
2023/05/24 10:01:13;;;;;;;7.22;1.40;;;18.10;97.60;;;;;;5017643;28;20072;-69
2023/05/24 10:03:52;;;;;;;5.35;1.17;;;18.00;97.50;;;;;;5019851;28;20487;-69
2023/05/24 10:06:19;;;;;;;7.57;1.55;;;18.10;97.20;;;;;;5016186;28;20032;-69
2023/05/24 10:08:47;;;;;;;4.60;1.02;;;18.00;96.80;;;;;;5028073;28;20033;-68
2023/05/24 10:11:14;;;;;;;7.15;1.40;;;17.90;96.90;;;;;;5006920;28;20194;-68
2023/05/24 10:13:40;;;;;;;8.95;1.52;;;17.90;96.80;;;;;;4996121;28;20475;-69
2023/05/24 10:16:07;;;;;;;6.22;1.45;;;17.80;97.00;;;;;;5007839;28;20045;-69
2023/05/24 10:18:33;;;;;;;5.47;1.60;;;17.70;96.80;;;;;;4994320;28;20048;-69
2023/05/24 10:21:03;;;;;;;5.25;1.00;;;17.60;96.70;;;;;;4995210;28;21142;-68
2023/05/24 10:23:31;;;;;;;5.40;1.20;;;17.50;96.90;;;;;;5018943;28;20029;-69
2023/05/24 10:26:08;;;;;;;6.18;1.65;;;17.30;96.90;;;;;;5018951;28;20406;-68
2023/05/24 10:28:46;;;;;;;9.60;1.88;;;17.30;97.10;;;;;;5012034;28;20099;-68
2023/05/24 10:31:18;;;;;;;9.63;1.85;;;17.30;97.20;;;;;;5007866;28;20041;-68
2023/05/24 10:33:47;;;;;;;11.43;2.95;;;17.40;97.10;;;;;;5010929;28;22457;-68
2023/05/24 10:36:14;;;;;;;4.82;1.10;;;17.50;97.10;;;;;;5012128;28;20380;-68
2023/05/24 10:38:42;;;;;;;8.40;1.27;;;17.60;97.00;;;;;;5013657;28;20048;-69
2023/05/24 10:41:08;;;;;;;8.60;1.70;;;17.70;96.90;;;;;;4995017;28;20056;-69
2023/05/24 10:43:36;;;;;;;5.03;1.67;;;18.00;96.80;;;;;;5022044;28;20040;-69
2023/05/24 10:46:03;;;;;;;5.97;1.27;;;18.20;96.50;;;;;;5020753;28;20045;-68
2023/05/24 10:48:35;;;;;;;3.85;1.20;;;18.40;96.40;;;;;;5012754;28;20386;-68
2023/05/24 10:51:39;;;;;;;7.53;2.00;;;18.70;96.30;;;;;;5007636;28;20533;-69
2023/05/24 10:54:16;;;;;;;9.82;1.98;;;19.30;95.40;;;;;;5011138;28;20047;-68
2023/05/24 10:56:47;;;;;;;7.97;1.67;;;20.00;95.20;;;;;;5011090;28;20484;-69
2023/05/24 10:59:37;;;;;;;8.52;2.00;;;20.90;94.80;;;;;;5009228;28;20034;-69
2023/05/24 11:02:11;;;;;;;5.47;1.42;;;21.80;93.30;;;;;;5019212;28;20033;-70
2023/05/24 11:04:45;;;;;;;6.55;1.52;;;22.30;92.10;;;;;;5000951;28;20059;-69
2023/05/24 11:07:14;;;;;;;5.68;1.40;;;22.30;91.20;;;;;;5014950;28;20599;-68
2023/05/24 11:09:46;;;;;;;6.22;1.58;;;22.10;90.50;;;;;;4973620;28;20033;-69
2023/05/24 11:12:16;;;;;;;6.18;1.50;;;22.00;90.30;;;;;;4994304;28;20036;-68
2023/05/24 11:14:50;;;;;;;8.23;1.60;;;21.90;89.80;;;;;;5009802;28;20044;-68
2023/05/24 11:17:21;;;;;;;6.22;1.33;;;21.90;88.70;;;;;;5011326;28;20534;-70
2023/05/24 11:19:53;;;;;;;7.40;1.77;;;21.80;88.40;;;;;;5006692;28;20041;-70
2023/05/24 11:22:21;;;;;;;6.18;1.60;;;21.60;88.40;;;;;;4996832;28;20037;-69
2023/05/24 11:24:47;;;;;;;5.47;1.40;;;21.70;89.00;;;;;;5021303;28;20036;-69
2023/05/24 11:27:14;;;;;;;6.20;1.67;;;21.60;87.60;;;;;;5002401;28;20048;-68
2023/05/24 11:29:42;;;;;;;7.20;1.63;;;21.30;87.90;;;;;;4990729;28;22784;-68
2023/05/24 11:32:08;;;;;;;6.88;1.27;;;21.00;88.00;;;;;;4992423;28;20041;-70
2023/05/24 11:34:35;;;;;;;8.38;1.63;;;20.70;88.10;;;;;;5009489;28;20052;-69
2023/05/24 11:37:02;;;;;;;5.75;1.60;;;20.60;88.60;;;;;;5009399;28;20037;-68
2023/05/24 11:39:30;;;;;;;5.07;1.10;;;20.60;88.30;;;;;;4990725;28;20040;-69
2023/05/24 11:41:56;;;;;;;5.53;1.40;;;20.60;88.40;;;;;;5012188;28;20041;-68
2023/05/24 11:44:38;;;;;;;9.75;1.60;;;20.40;88.10;;;;;;5019223;28;20051;-68
2023/05/24 11:47:07;;;;;;;6.35;1.75;;;20.30;89.00;;;;;;5020442;28;20116;-69
2023/05/24 11:49:33;;;;;;;8.75;1.60;;;20.40;89.00;;;;;;5013786;28;20041;-68
2023/05/24 11:52:01;;;;;;;6.60;1.38;;;20.60;88.80;;;;;;5012741;28;20431;-68
2023/05/24 11:54:28;;;;;;;6.85;1.42;;;20.80;88.60;;;;;;5031245;28;20094;-69
2023/05/24 11:56:54;;;;;;;8.23;2.20;;;21.10;88.90;;;;;;5014767;28;20049;-69
2023/05/24 11:59:25;;;;;;;7.38;1.42;;;21.50;88.00;;;;;;5011828;28;20040;-67
2023/05/24 12:02:04;;;;;;;5.38;1.63;;;21.90;88.20;;;;;;5013541;28;20055;-69
2023/05/24 12:04:31;;;;;;;3.58;1.40;;;22.50;87.40;;;;;;5018169;28;20040;-69
2023/05/24 12:06:58;;;;;;;4.95;1.55;;;22.60;85.30;;;;;;5022054;28;21542;-70
2023/05/24 12:09:25;;;;;;;5.53;1.02;;;22.60;84.10;;;;;;5017962;28;20131;-68
2023/05/24 12:11:52;;;;;;;7.40;1.75;;;22.80;83.00;;;;;;5012836;28;20384;-69
2023/05/24 12:14:38;;;;;;;7.57;1.80;;;22.80;82.00;;;;;;5013244;28;20040;-69
2023/05/24 12:17:04;;;;;;;5.63;1.40;;;23.10;82.10;;;;;;5014775;28;20045;-71
2023/05/24 12:19:35;;;;;;;4.43;1.30;;;23.00;81.70;;;;;;5010284;28;20519;-69
2023/05/24 12:22:05;;;;;;;9.95;2.30;;;22.70;81.10;;;;;;5013519;28;20036;-69
2023/05/24 12:24:32;;;;;;;9.23;2.05;;;22.10;81.40;;;;;;5016112;28;20025;-69
2023/05/24 12:27:06;;;;;;;7.22;1.80;;;21.80;81.70;;;;;;5005294;28;20438;-69
2023/05/24 12:29:38;;;;;;;8.90;1.88;;;21.50;82.30;;;;;;5015980;28;20029;-68
2023/05/24 12:32:10;;;;;;;5.25;1.48;;;21.30;83.10;;;;;;5016390;28;20041;-69
2023/05/24 12:34:39;;;;;;;;;;;21.30;83.50;;;;;;5013702;28;20040;-68
2023/05/24 12:37:07;;;;;;;8.25;1.88;;;22.10;83.90;;;;;;5013215;28;19924;-69
2023/05/24 12:39:35;;;;;;;9.80;1.77;;;23.60;81.80;;;;;;5010101;28;20048;-68
2023/05/24 12:42:03;;;;;;;6.47;1.85;;;24.80;78.30;;;;;;5013260;28;20516;-70
2023/05/24 12:44:33;;;;;;;5.03;1.42;;;25.80;75.20;;;;;;5014354;28;20036;-69
2023/05/24 12:47:01;;;;;;;7.72;1.83;;;26.30;72.70;;;;;;5022722;28;20044;-69
2023/05/24 12:49:28;;;;;;;7.38;1.85;;;26.60;70.80;;;;;;5016878;28;20044;-69
2023/05/24 12:51:55;;;;;;;7.43;1.90;;;27.00;69.80;;;;;;5013980;28;20040;-69
2023/05/24 12:54:24;;;;;;;7.88;2.00;;;27.10;68.80;;;;;;5015103;28;20036;-69
2023/05/24 12:56:52;;;;;;;9.77;1.80;;;27.20;67.70;;;;;;5012786;28;20037;-69